sensor_id;sensor_type;location;lat;lon;timestamp;pressure;altitude;pressure_sealevel;temperature;humidity
28911;BME280;16028;42.642;23.310;2023-04-26T00:02:26;93085.25;;;9.90;100.00
28911;BME280;16028;42.642;23.310;2023-04-26T00:04:54;93085.41;;;9.96;100.00
28911;BME280;16028;42.642;23.310;2023-04-26T00:07:23;93081.69;;;9.91;100.00
28911;BME280;16028;42.642;23.310;2023-04-26T00:09:50;93077.16;;;9.85;100.00
28911;BME280;16028;42.642;23.310;2023-04-26T00:12:17;93077.34;;;9.75;100.00
28911;BME280;16028;42.642;23.310;2023-04-26T00:14:44;93070.19;;;9.77;100.00
28911;BME280;16028;42.642;23.310;2023-04-26T00:17:11;93068.75;;;9.67;100.00
28911;BME280;16028;42.642;23.310;2023-04-26T00:19:38;93063.88;;;9.64;100.00
28911;BME280;16028;42.642;23.310;2023-04-26T00:22:06;93062.59;;;9.60;100.00
28911;BME280;16028;42.642;23.310;2023-04-26T00:24:34;93062.28;;;9.63;100.00
28911;BME280;16028;42.642;23.310;2023-04-26T00:27:01;93063.56;;;9.58;100.00
28911;BME280;16028;42.642;23.310;2023-04-26T00:29:33;93062.28;;;9.54;100.00
28911;BME280;16028;42.642;23.310;2023-04-26T00:32:00;93051.25;;;9.52;100.00
28911;BME280;16028;42.642;23.310;2023-04-26T00:34:31;93044.91;;;9.55;100.00
28911;BME280;16028;42.642;23.310;2023-04-26T00:36:58;93044.28;;;9.45;100.00
28911;BME280;16028;42.642;23.310;2023-04-26T00:39:26;93040.41;;;9.33;100.00
28911;BME280;16028;42.642;23.310;2023-04-26T00:41:53;93045.94;;;9.30;100.00
28911;BME280;16028;42.642;23.310;2023-04-26T00:44:22;93047.22;;;9.34;100.00
28911;BME280;16028;42.642;23.310;2023-04-26T00:46:51;93044.81;;;9.24;100.00
28911;BME280;16028;42.642;23.310;2023-04-26T00:49:21;93045.94;;;9.22;100.00
28911;BME280;16028;42.642;23.310;2023-04-26T00:51:48;93045.13;;;9.21;100.00
28911;BME280;16028;42.642;23.310;2023-04-26T00:54:18;93049.50;;;9.21;100.00
28911;BME280;16028;42.642;23.310;2023-04-26T00:56:47;93047.72;;;9.13;100.00
28911;BME280;16028;42.642;23.310;2023-04-26T00:59:17;93043.50;;;9.04;100.00
28911;BME280;16028;42.642;23.310;2023-04-26T01:01:43;93043.50;;;9.04;100.00
28911;BME280;16028;42.642;23.310;2023-04-26T01:04:10;93050.16;;;9.07;100.00
28911;BME280;16028;42.642;23.310;2023-04-26T01:06:39;93047.41;;;8.92;100.00
28911;BME280;16028;42.642;23.310;2023-04-26T01:09:06;93060.66;;;8.81;100.00
28911;BME280;16028;42.642;23.310;2023-04-26T01:11:35;93064.75;;;8.83;100.00
28911;BME280;16028;42.642;23.310;2023-04-26T01:14:04;93063.75;;;8.84;100.00
28911;BME280;16028;42.642;23.310;2023-04-26T01:16:33;93060.66;;;8.81;100.00
28911;BME280;16028;42.642;23.310;2023-04-26T01:19:06;93049.50;;;8.80;100.00
28911;BME280;16028;42.642;23.310;2023-04-26T01:21:35;93041.56;;;8.82;100.00
28911;BME280;16028;42.642;23.310;2023-04-26T01:24:04;93042.50;;;8.81;100.00
28911;BME280;16028;42.642;23.310;2023-04-26T01:26:31;93043.34;;;8.73;100.00
28911;BME280;16028;42.642;23.310;2023-04-26T01:28:58;93032.78;;;8.67;100.00
28911;BME280;16028;42.642;23.310;2023-04-26T01:31:24;93041.72;;;8.72;100.00
28911;BME280;16028;42.642;23.310;2023-04-26T01:33:51;93051.25;;;8.72;100.00
28911;BME280;16028;42.642;23.310;2023-04-26T01:36:18;93046.06;;;8.64;100.00
28911;BME280;16028;42.642;23.310;2023-04-26T01:38:45;93045.09;;;8.57;100.00
28911;BME280;16028;42.642;23.310;2023-04-26T01:41:13;93061.59;;;8.56;100.00
28911;BME280;16028;42.642;23.310;2023-04-26T01:43:39;93058.53;;;8.60;100.00
28911;BME280;16028;42.642;23.310;2023-04-26T01:46:06;93054.66;;;8.64;100.00
28911;BME280;16028;42.642;23.310;2023-04-26T01:48:33;93056.94;;;8.67;100.00
28911;BME280;16028;42.642;23.310;2023-04-26T01:51:00;93055.16;;;8.68;100.00
28911;BME280;16028;42.642;23.310;2023-04-26T01:53:26;93055.63;;;8.71;100.00
28911;BME280;16028;42.642;23.310;2023-04-26T01:55:53;93044.47;;;8.71;100.00
28911;BME280;16028;42.642;23.310;2023-04-26T01:58:22;93043.47;;;8.72;100.00
28911;BME280;16028;42.642;23.310;2023-04-26T02:00:48;93035.72;;;8.80;100.00
28911;BME280;16028;42.642;23.310;2023-04-26T02:03:15;93047.38;;;8.76;100.00
28911;BME280;16028;42.642;23.310;2023-04-26T02:05:42;93030.84;;;8.69;100.00
28911;BME280;16028;42.642;23.310;2023-04-26T02:08:09;93029.25;;;8.68;100.00
28911;BME280;16028;42.642;23.310;2023-04-26T02:10:36;93039.44;;;8.69;100.00
28911;BME280;16028;42.642;23.310;2023-04-26T02:13:02;93032.63;;;8.68;100.00
28911;BME280;16028;42.642;23.310;2023-04-26T02:15:30;93032.16;;;8.73;100.00
28911;BME280;16028;42.642;23.310;2023-04-26T02:17:57;93025.81;;;8.75;100.00
28911;BME280;16028;42.642;23.310;2023-04-26T02:20:24;93021.47;;;8.76;100.00
28911;BME280;16028;42.642;23.310;2023-04-26T02:22:51;93025.50;;;8.70;100.00
28911;BME280;16028;42.642;23.310;2023-04-26T02:25:17;93033.13;;;8.64;100.00
28911;BME280;16028;42.642;23.310;2023-04-26T02:27:44;93035.22;;;8.60;100.00
28911;BME280;16028;42.642;23.310;2023-04-26T02:30:12;93033.44;;;8.61;100.00
28911;BME280;16028;42.642;23.310;2023-04-26T02:32:40;93035.53;;;8.65;100.00
28911;BME280;16028;42.642;23.310;2023-04-26T02:35:07;93031.66;;;8.69;100.00
28911;BME280;16028;42.642;23.310;2023-04-26T02:37:35;93028.75;;;8.72;100.00
28911;BME280;16028;42.642;23.310;2023-04-26T02:40:02;93026.31;;;8.71;100.00
28911;BME280;16028;42.642;23.310;2023-04-26T02:42:30;93022.25;;;8.68;100.00
28911;BME280;16028;42.642;23.310;2023-04-26T02:44:56;93030.53;;;8.72;100.00
28911;BME280;16028;42.642;23.310;2023-04-26T02:47:23;93031.50;;;8.71;100.00
28911;BME280;16028;42.642;23.310;2023-04-26T02:49:52;93020.81;;;8.74;100.00
28911;BME280;16028;42.642;23.310;2023-04-26T02:52:18;93015.13;;;8.78;100.00
28911;BME280;16028;42.642;23.310;2023-04-26T02:54:45;93008.81;;;8.81;100.00
28911;BME280;16028;42.642;23.310;2023-04-26T02:57:12;93013.22;;;8.80;100.00
28911;BME280;16028;42.642;23.310;2023-04-26T02:59:38;93004.94;;;8.93;100.00
28911;BME280;16028;42.642;23.310;2023-04-26T03:02:05;93017.25;;;8.91;100.00
28911;BME280;16028;42.642;23.310;2023-04-26T03:04:32;93021.78;;;8.89;100.00
28911;BME280;16028;42.642;23.310;2023-04-26T03:07:01;93017.25;;;8.91;100.00
28911;BME280;16028;42.642;23.310;2023-04-26T03:09:28;93009.81;;;8.96;100.00
28911;BME280;16028;42.642;23.310;2023-04-26T03:11:55;93012.56;;;9.02;100.00
28911;BME280;16028;42.642;23.310;2023-04-26T03:14:22;93003.63;;;9.05;100.00
28911;BME280;16028;42.642;23.310;2023-04-26T03:16:49;93004.28;;;9.07;100.00
28911;BME280;16028;42.642;23.310;2023-04-26T03:19:16;93008.31;;;9.10;100.00
28911;BME280;16028;42.642;23.310;2023-04-26T03:21:42;93010.44;;;9.14;100.00
28911;BME280;16028;42.642;23.310;2023-04-26T03:24:10;93016.09;;;9.18;100.00
28911;BME280;16028;42.642;23.310;2023-04-26T03:26:37;93013.19;;;9.21;100.00
28911;BME280;16028;42.642;23.310;2023-04-26T03:29:04;93016.41;;;9.23;100.00
28911;BME280;16028;42.642;23.310;2023-04-26T03:31:31;93017.88;;;9.17;100.00
28911;BME280;16028;42.642;23.310;2023-04-26T03:33:57;93015.28;;;9.17;100.00
28911;BME280;16028;42.642;23.310;2023-04-26T03:36:24;93015.78;;;9.21;100.00
28911;BME280;16028;42.642;23.310;2023-04-26T03:38:52;93016.91;;;9.26;100.00
28911;BME280;16028;42.642;23.310;2023-04-26T03:41:21;93014.31;;;9.26;100.00
28911;BME280;16028;42.642;23.310;2023-04-26T03:43:48;93019.97;;;9.30;100.00
28911;BME280;16028;42.642;23.310;2023-04-26T03:46:14;93026.63;;;9.32;100.00
28911;BME280;16028;42.642;23.310;2023-04-26T03:48:41;93027.09;;;9.36;100.00
28911;BME280;16028;42.642;23.310;2023-04-26T03:51:08;93022.41;;;9.39;100.00
28911;BME280;16028;42.642;23.310;2023-04-26T03:53:35;93018.81;;;9.48;100.00
28911;BME280;16028;42.642;23.310;2023-04-26T03:56:02;93017.38;;;9.46;100.00
28911;BME280;16028;42.642;23.310;2023-04-26T03:58:30;93021.06;;;9.51;100.00
28911;BME280;16028;42.642;23.310;2023-04-26T04:00:56;93025.94;;;9.54;100.00
28911;BME280;16028;42.642;23.310;2023-04-26T04:03:23;93037.91;;;9.64;100.00
28911;BME280;16028;42.642;23.310;2023-04-26T04:05:50;93032.56;;;9.65;100.00
28911;BME280;16028;42.642;23.310;2023-04-26T04:08:17;93033.88;;;9.69;100.00
28911;BME280;16028;42.642;23.310;2023-04-26T04:10:43;93039.34;;;9.74;100.00
28911;BME280;16028;42.642;23.310;2023-04-26T04:13:10;93041.81;;;9.68;100.00
28911;BME280;16028;42.642;23.310;2023-04-26T04:15:38;93041.84;;;9.60;100.00
28911;BME280;16028;42.642;23.310;2023-04-26T04:18:05;93041.50;;;9.63;100.00
28911;BME280;16028;42.642;23.310;2023-04-26T04:20:32;93038.41;;;9.67;100.00
28911;BME280;16028;42.642;23.310;2023-04-26T04:22:58;93043.25;;;9.70;100.00
28911;BME280;16028;42.642;23.310;2023-04-26T04:25:26;93052.38;;;9.66;100.00
28911;BME280;16028;42.642;23.310;2023-04-26T04:27:53;93046.84;;;9.69;100.00
28911;BME280;16028;42.642;23.310;2023-04-26T04:30:21;93052.66;;;9.79;100.00
28911;BME280;16028;42.642;23.310;2023-04-26T04:32:50;93051.19;;;9.77;100.00
28911;BME280;16028;42.642;23.310;2023-04-26T04:35:17;93051.81;;;9.87;100.00
28911;BME280;16028;42.642;23.310;2023-04-26T04:37:44;93063.31;;;9.92;100.00
28911;BME280;16028;42.642;23.310;2023-04-26T04:40:11;93066.59;;;9.86;100.00
28911;BME280;16028;42.642;23.310;2023-04-26T04:42:38;93053.72;;;10.01;100.00
28911;BME280;16028;42.642;23.310;2023-04-26T04:45:06;93051.16;;;9.93;100.00
28911;BME280;16028;42.642;23.310;2023-04-26T04:47:33;93061.56;;;9.77;100.00
28911;BME280;16028;42.642;23.310;2023-04-26T04:50:06;93059.66;;;9.71;100.00
28911;BME280;16028;42.642;23.310;2023-04-26T04:52:33;93057.72;;;9.73;100.00
28911;BME280;16028;42.642;23.310;2023-04-26T04:54:59;93064.00;;;9.86;100.00
28911;BME280;16028;42.642;23.310;2023-04-26T04:57:26;93060.41;;;9.95;100.00
28911;BME280;16028;42.642;23.310;2023-04-26T04:59:53;93069.00;;;9.96;100.00
28911;BME280;16028;42.642;23.310;2023-04-26T05:02:20;93063.50;;;9.91;100.00
28911;BME280;16028;42.642;23.310;2023-04-26T05:04:46;93068.69;;;9.91;100.00
28911;BME280;16028;42.642;23.310;2023-04-26T05:07:14;93061.88;;;9.90;100.00
28911;BME280;16028;42.642;23.310;2023-04-26T05:09:42;93057.97;;;9.94;100.00
28911;BME280;16028;42.642;23.310;2023-04-26T05:12:10;93060.84;;;10.07;100.00
28911;BME280;16028;42.642;23.310;2023-04-26T05:14:36;93068.16;;;10.03;100.00
28911;BME280;16028;42.642;23.310;2023-04-26T05:17:05;93064.47;;;9.90;100.00
28911;BME280;16028;42.642;23.310;2023-04-26T05:19:31;93066.75;;;9.85;100.00
28911;BME280;16028;42.642;23.310;2023-04-26T05:21:58;93067.09;;;9.82;100.00
28911;BME280;16028;42.642;23.310;2023-04-26T05:24:28;93062.38;;;9.85;100.00
28911;BME280;16028;42.642;23.310;2023-04-26T05:26:57;93076.31;;;9.92;100.00
28911;BME280;16028;42.642;23.310;2023-04-26T05:29:24;93067.69;;;10.00;100.00
28911;BME280;16028;42.642;23.310;2023-04-26T05:31:54;93074.66;;;10.16;100.00
28911;BME280;16028;42.642;23.310;2023-04-26T05:34:22;93072.66;;;10.34;100.00
28911;BME280;16028;42.642;23.310;2023-04-26T05:36:49;93074.44;;;10.33;100.00
28911;BME280;16028;42.642;23.310;2023-04-26T05:39:15;93077.78;;;10.42;100.00
28911;BME280;16028;42.642;23.310;2023-04-26T05:41:44;93081.34;;;10.49;100.00
28911;BME280;16028;42.642;23.310;2023-04-26T05:44:12;93080.69;;;10.47;100.00
28911;BME280;16028;42.642;23.310;2023-04-26T05:46:38;93084.56;;;10.51;100.00
28911;BME280;16028;42.642;23.310;2023-04-26T05:49:05;93086.06;;;10.76;100.00
28911;BME280;16028;42.642;23.310;2023-04-26T05:51:32;93085.56;;;10.81;100.00
28911;BME280;16028;42.642;23.310;2023-04-26T05:53:59;93079.69;;;10.79;100.00
28911;BME280;16028;42.642;23.310;2023-04-26T05:56:25;93080.88;;;10.99;100.00
28911;BME280;16028;42.642;23.310;2023-04-26T05:58:53;93083.09;;;11.10;99.80
28911;BME280;16028;42.642;23.310;2023-04-26T06:01:20;93084.41;;;11.06;96.13
28911;BME280;16028;42.642;23.310;2023-04-26T06:03:47;93084.75;;;11.03;98.09
28911;BME280;16028;42.642;23.310;2023-04-26T06:06:14;93084.22;;;11.30;99.43
28911;BME280;16028;42.642;23.310;2023-04-26T06:08:41;93078.50;;;11.35;97.72
28911;BME280;16028;42.642;23.310;2023-04-26T06:11:08;93079.47;;;11.56;95.24
28911;BME280;16028;42.642;23.310;2023-04-26T06:13:35;93079.91;;;11.60;95.03
28911;BME280;16028;42.642;23.310;2023-04-26T06:16:03;93080.03;;;11.66;94.18
28911;BME280;16028;42.642;23.310;2023-04-26T06:18:33;93083.16;;;11.62;93.77
28911;BME280;16028;42.642;23.310;2023-04-26T06:21:00;93082.00;;;11.64;91.66
28911;BME280;16028;42.642;23.310;2023-04-26T06:23:27;93084.72;;;11.71;86.86
28911;BME280;16028;42.642;23.310;2023-04-26T06:25:55;93084.72;;;11.71;87.56
28911;BME280;16028;42.642;23.310;2023-04-26T06:28:22;93094.88;;;11.81;84.52
28911;BME280;16028;42.642;23.310;2023-04-26T06:30:48;93083.31;;;11.83;82.59
28911;BME280;16028;42.642;23.310;2023-04-26T06:33:17;93085.81;;;11.77;82.75
28911;BME280;16028;42.642;23.310;2023-04-26T06:35:43;93091.75;;;11.71;81.90
28911;BME280;16028;42.642;23.310;2023-04-26T06:38:10;93089.47;;;11.67;82.25
28911;BME280;16028;42.642;23.310;2023-04-26T06:40:37;93090.75;;;11.72;83.33
28911;BME280;16028;42.642;23.310;2023-04-26T06:43:04;93092.06;;;11.67;82.63
28911;BME280;16028;42.642;23.310;2023-04-26T06:45:31;93090.97;;;11.62;82.01
28911;BME280;16028;42.642;23.310;2023-04-26T06:47:58;93096.13;;;11.70;83.37
28911;BME280;16028;42.642;23.310;2023-04-26T06:50:27;93092.69;;;11.69;81.35
28911;BME280;16028;42.642;23.310;2023-04-26T06:52:54;93100.91;;;11.58;79.22
28911;BME280;16028;42.642;23.310;2023-04-26T06:55:21;93103.66;;;11.42;77.36
28911;BME280;16028;42.642;23.310;2023-04-26T06:57:49;93106.97;;;11.36;75.92
28911;BME280;16028;42.642;23.310;2023-04-26T07:00:16;93109.91;;;11.33;77.31
28911;BME280;16028;42.642;23.310;2023-04-26T07:02:43;93108.00;;;11.27;78.06
28911;BME280;16028;42.642;23.310;2023-04-26T07:05:10;93109.63;;;11.05;78.24
28911;BME280;16028;42.642;23.310;2023-04-26T07:07:38;93105.59;;;11.03;79.93
28911;BME280;16028;42.642;23.310;2023-04-26T07:10:06;93105.69;;;11.09;80.99
28911;BME280;16028;42.642;23.310;2023-04-26T07:12:33;93103.22;;;11.16;79.43
28911;BME280;16028;42.642;23.310;2023-04-26T07:15:00;93108.34;;;11.24;76.00
28911;BME280;16028;42.642;23.310;2023-04-26T07:17:27;93102.44;;;11.30;73.73
28911;BME280;16028;42.642;23.310;2023-04-26T07:19:54;93099.16;;;11.36;73.01
28911;BME280;16028;42.642;23.310;2023-04-26T07:22:20;93091.44;;;11.43;74.78
28911;BME280;16028;42.642;23.310;2023-04-26T07:24:48;93087.47;;;11.55;73.89
28911;BME280;16028;42.642;23.310;2023-04-26T07:27:15;93089.63;;;11.66;72.21
28911;BME280;16028;42.642;23.310;2023-04-26T07:29:42;93091.38;;;11.74;68.00
28911;BME280;16028;42.642;23.310;2023-04-26T07:32:09;93098.75;;;11.85;67.44
28911;BME280;16028;42.642;23.310;2023-04-26T07:34:35;93101.38;;;11.85;65.01
28911;BME280;16028;42.642;23.310;2023-04-26T07:37:02;93106.06;;;11.89;67.53
28911;BME280;16028;42.642;23.310;2023-04-26T07:39:29;93107.50;;;11.92;64.61
28911;BME280;16028;42.642;23.310;2023-04-26T07:41:57;93111.53;;;11.94;65.85
28911;BME280;16028;42.642;23.310;2023-04-26T07:44:24;93112.53;;;11.93;65.75
28911;BME280;16028;42.642;23.310;2023-04-26T07:46:51;93118.44;;;11.87;65.38
28911;BME280;16028;42.642;23.310;2023-04-26T07:49:17;93115.91;;;11.79;66.66
28911;BME280;16028;42.642;23.310;2023-04-26T07:51:44;93122.81;;;11.72;65.39
28911;BME280;16028;42.642;23.310;2023-04-26T07:54:11;93120.66;;;11.76;68.28
28911;BME280;16028;42.642;23.310;2023-04-26T07:56:38;93117.72;;;11.79;69.69
28911;BME280;16028;42.642;23.310;2023-04-26T07:59:06;93122.66;;;11.88;67.87
28911;BME280;16028;42.642;23.310;2023-04-26T08:01:32;93116.59;;;11.96;70.53
28911;BME280;16028;42.642;23.310;2023-04-26T08:03:59;93126.81;;;11.97;68.07
28911;BME280;16028;42.642;23.310;2023-04-26T08:06:26;93124.28;;;11.89;67.04
28911;BME280;16028;42.642;23.310;2023-04-26T08:08:53;93127.25;;;11.86;69.06
28911;BME280;16028;42.642;23.310;2023-04-26T08:11:20;93130.31;;;11.90;66.33
28911;BME280;16028;42.642;23.310;2023-04-26T08:13:47;93127.91;;;12.03;68.38
28911;BME280;16028;42.642;23.310;2023-04-26T08:16:15;93128.53;;;12.05;67.75
28911;BME280;16028;42.642;23.310;2023-04-26T08:18:42;93123.34;;;12.05;67.47
28911;BME280;16028;42.642;23.310;2023-04-26T08:21:09;93130.34;;;12.04;66.97
28911;BME280;16028;42.642;23.310;2023-04-26T08:23:35;93132.38;;;11.94;67.07
28911;BME280;16028;42.642;23.310;2023-04-26T08:26:02;93140.03;;;11.96;67.85
28911;BME280;16028;42.642;23.310;2023-04-26T08:28:30;93133.28;;;12.01;66.49
28911;BME280;16028;42.642;23.310;2023-04-26T08:30:57;93134.56;;;12.05;67.18
28911;BME280;16028;42.642;23.310;2023-04-26T08:33:25;93136.53;;;12.03;64.90
28911;BME280;16028;42.642;23.310;2023-04-26T08:35:52;93135.75;;;12.03;65.70
28911;BME280;16028;42.642;23.310;2023-04-26T08:38:19;93137.63;;;12.09;65.09
28911;BME280;16028;42.642;23.310;2023-04-26T08:40:47;93131.06;;;12.13;64.47
28911;BME280;16028;42.642;23.310;2023-04-26T08:43:15;93143.28;;;12.12;65.41
28911;BME280;16028;42.642;23.310;2023-04-26T08:45:44;93137.63;;;12.09;65.07
28911;BME280;16028;42.642;23.310;2023-04-26T08:48:12;93131.06;;;12.13;65.91
28911;BME280;16028;42.642;23.310;2023-04-26T08:50:42;93131.34;;;12.18;65.18
28911;BME280;16028;42.642;23.310;2023-04-26T08:53:13;93135.13;;;12.15;66.25
28911;BME280;16028;42.642;23.310;2023-04-26T08:55:40;93137.53;;;12.17;66.03
28911;BME280;16028;42.642;23.310;2023-04-26T08:58:09;93137.63;;;12.24;64.45
28911;BME280;16028;42.642;23.310;2023-04-26T09:00:37;93143.31;;;12.27;65.83
28911;BME280;16028;42.642;23.310;2023-04-26T09:03:04;93137.53;;;12.32;65.09
28911;BME280;16028;42.642;23.310;2023-04-26T09:05:33;93140.34;;;12.30;64.73
28911;BME280;16028;42.642;23.310;2023-04-26T09:08:02;93144.84;;;12.36;64.40
28911;BME280;16028;42.642;23.310;2023-04-26T09:10:30;93146.81;;;12.49;64.92
28911;BME280;16028;42.642;23.310;2023-04-26T09:12:57;93141.22;;;12.52;64.12
28911;BME280;16028;42.642;23.310;2023-04-26T09:15:25;93145.91;;;12.56;65.14
28911;BME280;16028;42.642;23.310;2023-04-26T09:17:52;93146.88;;;12.70;63.68
28911;BME280;16028;42.642;23.310;2023-04-26T09:20:21;93150.59;;;12.76;65.32
28911;BME280;16028;42.642;23.310;2023-04-26T09:22:50;93149.84;;;12.82;64.36
28911;BME280;16028;42.642;23.310;2023-04-26T09:25:26;93147.25;;;12.82;62.74
28911;BME280;16028;42.642;23.310;2023-04-26T09:27:53;93154.97;;;12.90;64.47
28911;BME280;16028;42.642;23.310;2023-04-26T09:30:21;93156.75;;;13.04;62.83
28911;BME280;16028;42.642;23.310;2023-04-26T09:32:52;93153.78;;;13.07;61.50
28911;BME280;16028;42.642;23.310;2023-04-26T09:35:22;93154.59;;;13.07;61.36
28911;BME280;16028;42.642;23.310;2023-04-26T09:37:51;93149.63;;;13.12;62.53
28911;BME280;16028;42.642;23.310;2023-04-26T09:40:19;93156.50;;;13.13;60.06
28911;BME280;16028;42.642;23.310;2023-04-26T09:42:55;93138.56;;;13.10;59.05
28911;BME280;16028;42.642;23.310;2023-04-26T09:45:22;93142.00;;;13.11;61.67
28911;BME280;16028;42.642;23.310;2023-04-26T09:47:50;93133.22;;;13.18;61.75
28911;BME280;16028;42.642;23.310;2023-04-26T09:50:25;93131.50;;;13.25;61.07
28911;BME280;16028;42.642;23.310;2023-04-26T09:52:52;93129.41;;;13.36;61.12
28911;BME280;16028;42.642;23.310;2023-04-26T09:55:27;93135.25;;;13.38;59.03
28911;BME280;16028;42.642;23.310;2023-04-26T09:57:54;93135.06;;;13.39;59.91
28911;BME280;16028;42.642;23.310;2023-04-26T10:00:23;93129.09;;;13.45;58.24
28911;BME280;16028;42.642;23.310;2023-04-26T10:02:51;93134.75;;;13.49;59.20
28911;BME280;16028;42.642;23.310;2023-04-26T10:05:18;93135.56;;;13.49;60.02
28911;BME280;16028;42.642;23.310;2023-04-26T10:07:46;93134.81;;;13.55;57.85
28911;BME280;16028;42.642;23.310;2023-04-26T10:10:13;93135.13;;;13.67;58.64
28911;BME280;16028;42.642;23.310;2023-04-26T10:12:42;93131.97;;;13.71;59.23
28911;BME280;16028;42.642;23.310;2023-04-26T10:15:10;93126.34;;;13.74;57.53
28911;BME280;16028;42.642;23.310;2023-04-26T10:17:37;93132.63;;;13.80;57.38
28911;BME280;16028;42.642;23.310;2023-04-26T10:20:07;93132.78;;;13.78;56.84
28911;BME280;16028;42.642;23.310;2023-04-26T10:22:42;93118.88;;;13.71;57.91
28911;BME280;16028;42.642;23.310;2023-04-26T10:25:10;93130.94;;;13.72;55.09
28911;BME280;16028;42.642;23.310;2023-04-26T10:27:48;93121.63;;;13.85;57.00
28911;BME280;16028;42.642;23.310;2023-04-26T10:30:16;93117.00;;;13.87;58.38
28911;BME280;16028;42.642;23.310;2023-04-26T10:33:13;93118.25;;;13.91;55.43
28911;BME280;16028;42.642;23.310;2023-04-26T10:36:05;93121.09;;;13.96;56.87
28911;BME280;16028;42.642;23.310;2023-04-26T10:38:33;93130.41;;;14.05;54.17
28911;BME280;16028;42.642;23.310;2023-04-26T10:44:39;93119.22;;;13.90;55.41
28911;BME280;16028;42.642;23.310;2023-04-26T10:47:10;93123.91;;;13.94;53.74
28911;BME280;16028;42.642;23.310;2023-04-26T10:49:46;93121.41;;;13.86;53.52
28911;BME280;16028;42.642;23.310;2023-04-26T10:52:13;93117.75;;;13.81;54.00
28911;BME280;16028;42.642;23.310;2023-04-26T10:54:48;93129.78;;;13.75;53.17
28911;BME280;16028;42.642;23.310;2023-04-26T10:57:15;93123.38;;;13.77;54.43
28911;BME280;16028;42.642;23.310;2023-04-26T11:02:52;93119.34;;;14.03;53.30
28911;BME280;16028;42.642;23.310;2023-04-26T11:05:40;93117.16;;;14.06;51.69
28911;BME280;16028;42.642;23.310;2023-04-26T11:08:15;93124.63;;;13.88;49.13
28911;BME280;16028;42.642;23.310;2023-04-26T11:10:42;93117.88;;;13.94;50.84
28911;BME280;16028;42.642;23.310;2023-04-26T11:13:09;93125.38;;;14.03;52.60
28911;BME280;16028;42.642;23.310;2023-04-26T11:15:37;93123.81;;;14.09;49.90
28911;BME280;16028;42.642;23.310;2023-04-26T11:18:05;93115.53;;;14.05;49.05
28911;BME280;16028;42.642;23.310;2023-04-26T11:20:32;93123.69;;;13.96;51.71
28911;BME280;16028;42.642;23.310;2023-04-26T11:23:00;93122.94;;;14.02;52.19
28911;BME280;16028;42.642;23.310;2023-04-26T11:25:28;93124.34;;;14.04;50.06
28911;BME280;16028;42.642;23.310;2023-04-26T11:28:01;93130.84;;;14.08;50.47
28911;BME280;16028;42.642;23.310;2023-04-26T11:30:32;93120.00;;;14.11;51.45
28911;BME280;16028;42.642;23.310;2023-04-26T11:32:59;93121.31;;;14.28;51.48
28911;BME280;16028;42.642;23.310;2023-04-26T11:35:27;93121.31;;;14.28;49.89
28911;BME280;16028;42.642;23.310;2023-04-26T11:37:57;93121.72;;;14.25;51.74
28911;BME280;16028;42.642;23.310;2023-04-26T11:40:27;93117.69;;;14.23;49.42
28911;BME280;16028;42.642;23.310;2023-04-26T11:42:58;93118.47;;;14.23;49.77
28911;BME280;16028;42.642;23.310;2023-04-26T11:45:25;93120.03;;;14.18;49.92
28911;BME280;16028;42.642;23.310;2023-04-26T11:47:52;93123.69;;;14.23;49.92
28911;BME280;16028;42.642;23.310;2023-04-26T11:50:20;93124.31;;;14.25;49.56
28911;BME280;16028;42.642;23.310;2023-04-26T11:52:53;93119.53;;;14.29;51.16
28911;BME280;16028;42.642;23.310;2023-04-26T11:55:23;93124.19;;;14.34;49.93
28911;BME280;16028;42.642;23.310;2023-04-26T11:57:51;93112.00;;;14.47;53.65
28911;BME280;16028;42.642;23.310;2023-04-26T12:00:19;93113.41;;;14.50;51.44
28911;BME280;16028;42.642;23.310;2023-04-26T12:02:46;93121.78;;;14.66;48.75
28911;BME280;16028;42.642;23.310;2023-04-26T12:05:20;93111.75;;;14.76;49.56
28911;BME280;16028;42.642;23.310;2023-04-26T12:07:52;93108.13;;;14.77;49.57
28911;BME280;16028;42.642;23.310;2023-04-26T12:10:23;93111.38;;;14.79;51.52
28911;BME280;16028;42.642;23.310;2023-04-26T12:12:52;93104.13;;;14.81;49.55
28911;BME280;16028;42.642;23.310;2023-04-26T12:15:22;93106.31;;;14.78;48.94
28911;BME280;16028;42.642;23.310;2023-04-26T12:17:53;93105.25;;;14.66;49.47
28911;BME280;16028;42.642;23.310;2023-04-26T12:20:26;93111.22;;;14.53;49.97
28911;BME280;16028;42.642;23.310;2023-04-26T12:23:00;93115.44;;;14.48;49.05
28911;BME280;16028;42.642;23.310;2023-04-26T12:25:27;93107.94;;;14.38;48.33
28911;BME280;16028;42.642;23.310;2023-04-26T12:27:56;93107.69;;;14.33;48.62
28911;BME280;16028;42.642;23.310;2023-04-26T12:30:25;93112.16;;;14.39;48.89
28911;BME280;16028;42.642;23.310;2023-04-26T12:32:52;93097.53;;;14.51;49.67
28911;BME280;16028;42.642;23.310;2023-04-26T12:35:20;93107.84;;;14.59;49.79
28911;BME280;16028;42.642;23.310;2023-04-26T12:37:49;93093.56;;;14.68;46.46
28911;BME280;16028;42.642;23.310;2023-04-26T12:40:19;93105.47;;;14.64;47.39
28911;BME280;16028;42.642;23.310;2023-04-26T12:42:47;93103.41;;;14.60;49.04
28911;BME280;16028;42.642;23.310;2023-04-26T12:45:14;93090.47;;;14.45;49.18
28911;BME280;16028;42.642;23.310;2023-04-26T12:47:42;93096.09;;;14.42;50.06
28911;BME280;16028;42.642;23.310;2023-04-26T12:50:10;93094.84;;;14.38;48.70
28911;BME280;16028;42.642;23.310;2023-04-26T12:52:37;93110.31;;;14.33;48.54
28911;BME280;16028;42.642;23.310;2023-04-26T12:55:06;93109.19;;;14.21;48.53
28911;BME280;16028;42.642;23.310;2023-04-26T12:57:34;93107.38;;;14.21;49.90
28911;BME280;16028;42.642;23.310;2023-04-26T13:00:03;93106.41;;;14.22;47.83
28911;BME280;16028;42.642;23.310;2023-04-26T13:02:30;93104.59;;;14.29;49.63